createdAt,value
2022-08-30T00:00:06.780Z,1020.85
2022-08-30T00:00:16.226Z,1020.82
2022-08-30T00:00:25.655Z,1020.87
2022-08-30T00:00:35.059Z,1020.88
2022-08-30T00:00:44.526Z,1020.86
2022-08-30T00:00:53.946Z,1020.91
2022-08-30T00:01:03.371Z,1020.89
2022-08-30T00:01:14.369Z,1020.88
2022-08-30T00:01:22.244Z,1020.88
2022-08-30T00:01:31.811Z,1020.86
2022-08-30T00:01:41.221Z,1020.87
2022-08-30T00:01:50.705Z,1020.88
2022-08-30T00:02:09.676Z,1020.88
2022-08-30T00:02:19.280Z,1020.86
2022-08-30T00:02:28.609Z,1020.90
2022-08-30T00:02:38.006Z,1020.86
2022-08-30T00:02:47.498Z,1020.88
2022-08-30T00:02:56.963Z,1020.94
2022-08-30T00:03:06.276Z,1020.88
2022-08-30T00:03:16.005Z,1020.95
2022-08-30T00:03:25.184Z,1020.86
2022-08-30T00:03:34.540Z,1020.93
2022-08-30T00:03:43.891Z,1020.92
2022-08-30T00:03:53.453Z,1020.88
2022-08-30T00:04:02.794Z,1020.90
2022-08-30T00:04:12.131Z,1020.89
2022-08-30T00:04:21.586Z,1020.91
2022-08-30T00:04:31.039Z,1020.89
2022-08-30T00:04:40.556Z,1020.86
2022-08-30T00:04:59.402Z,1020.87
2022-08-30T00:05:08.818Z,1020.90
2022-08-30T00:05:18.244Z,1020.90
2022-08-30T00:05:27.662Z,1020.91
2022-08-30T00:05:37.088Z,1020.90
2022-08-30T00:05:46.507Z,1020.92
2022-08-30T00:05:56.468Z,1020.89
2022-08-30T00:06:05.346Z,1020.89
2022-08-30T00:06:14.772Z,1020.89
2022-08-30T00:06:24.190Z,1020.89
2022-08-30T00:06:33.607Z,1020.84
2022-08-30T00:06:43.029Z,1020.90
2022-08-30T00:06:52.462Z,1020.98
2022-08-30T00:07:01.870Z,1020.98
2022-08-30T00:07:11.330Z,1020.94
2022-08-30T00:07:20.762Z,1020.89
2022-08-30T00:07:39.562Z,1020.89
2022-08-30T00:07:49.058Z,1020.94
2022-08-30T00:07:58.512Z,1020.95
2022-08-30T00:08:07.920Z,1020.93
2022-08-30T00:08:17.378Z,1020.95
2022-08-30T00:08:26.799Z,1020.89
2022-08-30T00:08:36.247Z,1020.86
2022-08-30T00:08:45.716Z,1020.92
2022-08-30T00:08:55.148Z,1020.81
2022-08-30T00:09:04.549Z,1020.94
2022-08-30T00:09:13.995Z,1020.91
2022-08-30T00:09:23.422Z,1020.94
2022-08-30T00:09:32.876Z,1020.91
2022-08-30T00:09:42.297Z,1020.91
2022-08-30T00:09:51.723Z,1020.92
2022-08-30T00:10:01.144Z,1020.94
2022-08-30T00:10:10.565Z,1020.88
2022-08-30T00:10:29.404Z,1020.91
2022-08-30T00:10:38.856Z,1020.91
2022-08-30T00:10:48.345Z,1020.89
2022-08-30T00:10:57.776Z,1020.93
2022-08-30T00:11:07.194Z,1020.89
2022-08-30T00:11:16.607Z,1020.89
2022-08-30T00:11:26.047Z,1020.90
2022-08-30T00:11:35.451Z,1020.90
2022-08-30T00:11:44.870Z,1020.94
2022-08-30T00:11:54.283Z,1020.94
2022-08-30T00:12:03.730Z,1020.94
2022-08-30T00:12:13.132Z,1020.93
2022-08-30T00:12:22.556Z,1020.91
2022-08-30T00:12:31.990Z,1020.86
2022-08-30T00:12:41.400Z,1020.88
2022-08-30T00:12:50.890Z,1020.89
2022-08-30T00:13:09.816Z,1020.90
2022-08-30T00:13:19.153Z,1020.88
2022-08-30T00:13:28.581Z,1020.91
2022-08-30T00:13:37.972Z,1020.88
2022-08-30T00:13:47.380Z,1020.89
2022-08-30T00:13:56.798Z,1020.89
2022-08-30T00:14:06.219Z,1020.90
2022-08-30T00:14:15.640Z,1020.91
2022-08-30T00:14:25.087Z,1020.85
2022-08-30T00:14:34.553Z,1020.84
2022-08-30T00:14:43.996Z,1020.94
2022-08-30T00:14:53.466Z,1020.85
2022-08-30T00:15:02.890Z,1020.88
2022-08-30T00:15:12.314Z,1020.90
2022-08-30T00:15:21.754Z,1020.88
2022-08-30T00:15:31.303Z,1020.96
2022-08-30T00:15:40.664Z,1020.90
2022-08-30T00:15:59.638Z,1020.90
2022-08-30T00:16:09.053Z,1020.84
2022-08-30T00:16:18.566Z,1020.89
2022-08-30T00:16:27.934Z,1020.83
2022-08-30T00:16:37.363Z,1020.90
2022-08-30T00:16:46.865Z,1020.88
2022-08-30T00:16:56.325Z,1020.80
2022-08-30T00:17:05.783Z,1020.92
2022-08-30T00:17:15.255Z,1020.86
2022-08-30T00:17:24.847Z,1020.88
2022-08-30T00:17:34.271Z,1020.91
2022-08-30T00:17:43.719Z,1020.85
2022-08-30T00:17:53.141Z,1020.89
2022-08-30T00:18:02.600Z,1020.85
2022-08-30T00:18:12.046Z,1020.85
2022-08-30T00:18:21.482Z,1020.86
2022-08-30T00:18:30.931Z,1020.86
2022-08-30T00:18:49.811Z,1020.89
2022-08-30T00:18:59.251Z,1020.88
2022-08-30T00:19:08.681Z,1020.91
2022-08-30T00:19:18.102Z,1020.88
2022-08-30T00:19:27.555Z,1020.86
2022-08-30T00:19:36.996Z,1020.89
2022-08-30T00:19:46.398Z,1020.81
2022-08-30T00:19:55.841Z,1020.88
2022-08-30T00:20:05.239Z,1020.83
2022-08-30T00:20:14.660Z,1020.89
2022-08-30T00:20:24.081Z,1020.88
2022-08-30T00:20:33.478Z,1020.94
2022-08-30T00:20:42.922Z,1020.89
2022-08-30T00:20:52.432Z,1020.91
2022-08-30T00:21:01.836Z,1020.91
2022-08-30T00:21:11.315Z,1020.92
2022-08-30T00:21:20.707Z,1020.88
2022-08-30T00:21:39.560Z,1020.91
2022-08-30T00:21:48.979Z,1020.96
2022-08-30T00:21:58.381Z,1020.87
2022-08-30T00:22:07.879Z,1020.92
2022-08-30T00:22:17.339Z,1020.88
2022-08-30T00:22:26.926Z,1020.94
2022-08-30T00:22:36.488Z,1020.95
2022-08-30T00:22:45.952Z,1020.86
2022-08-30T00:22:55.401Z,1020.92
2022-08-30T00:23:04.875Z,1020.99
2022-08-30T00:23:14.300Z,1020.94
2022-08-30T00:23:23.741Z,1020.92
2022-08-30T00:23:33.134Z,1020.93
2022-08-30T00:23:42.533Z,1020.97
2022-08-30T00:23:51.997Z,1020.96
2022-08-30T00:24:01.406Z,1020.92
2022-08-30T00:24:10.821Z,1020.95
2022-08-30T00:24:29.683Z,1020.93
2022-08-30T00:24:39.114Z,1020.94
2022-08-30T00:24:48.565Z,1020.97
2022-08-30T00:24:57.971Z,1021.00
2022-08-30T00:25:07.382Z,1020.95
2022-08-30T00:25:16.807Z,1020.98
2022-08-30T00:25:26.204Z,1021.04
2022-08-30T00:25:35.605Z,1020.95
2022-08-30T00:25:45.031Z,1020.94
2022-08-30T00:25:54.463Z,1021.00
2022-08-30T00:26:03.870Z,1020.97
2022-08-30T00:26:13.319Z,1021.02
2022-08-30T00:26:22.710Z,1020.94
2022-08-30T00:26:32.112Z,1020.92
2022-08-30T00:26:41.575Z,1020.95
2022-08-30T00:26:51.018Z,1021.01
2022-08-30T00:27:09.806Z,1021.02
2022-08-30T00:27:19.216Z,1020.95
2022-08-30T00:27:28.623Z,1020.96
2022-08-30T00:27:38.023Z,1020.97
2022-08-30T00:27:47.540Z,1020.94
2022-08-30T00:27:56.986Z,1020.93
2022-08-30T00:28:06.387Z,1021.02
2022-08-30T00:28:15.826Z,1020.95
2022-08-30T00:28:25.222Z,1020.99
2022-08-30T00:28:34.617Z,1020.97
2022-08-30T00:28:44.024Z,1020.98
2022-08-30T00:28:53.428Z,1021.00
2022-08-30T00:29:02.851Z,1020.91
2022-08-30T00:29:12.267Z,1020.88
2022-08-30T00:29:21.687Z,1020.93
2022-08-30T00:29:31.126Z,1020.85
2022-08-30T00:29:40.568Z,1020.94
2022-08-30T00:29:59.390Z,1020.89
2022-08-30T00:30:08.824Z,1020.90
2022-08-30T00:30:18.250Z,1020.89
2022-08-30T00:30:27.648Z,1020.87
2022-08-30T00:30:37.059Z,1020.90
2022-08-30T00:30:46.581Z,1020.90
2022-08-30T00:30:55.959Z,1020.89
2022-08-30T00:31:05.391Z,1020.92
2022-08-30T00:31:15.304Z,1020.88
2022-08-30T00:31:24.168Z,1020.86
2022-08-30T00:31:33.646Z,1020.94
2022-08-30T00:31:42.982Z,1020.90
2022-08-30T00:31:52.380Z,1020.91
2022-08-30T00:32:01.804Z,1020.95
2022-08-30T00:32:11.245Z,1020.84
2022-08-30T00:32:20.676Z,1020.87
2022-08-30T00:32:39.547Z,1020.88
2022-08-30T00:32:49.037Z,1020.90
2022-08-30T00:32:58.456Z,1020.87
2022-08-30T00:33:07.882Z,1020.94
2022-08-30T00:33:17.551Z,1020.89
2022-08-30T00:33:26.689Z,1020.90
2022-08-30T00:33:36.120Z,1020.91
2022-08-30T00:33:45.535Z,1020.92
2022-08-30T00:33:54.961Z,1020.93
2022-08-30T00:34:04.361Z,1020.91
2022-08-30T00:34:13.776Z,1020.89
2022-08-30T00:34:23.200Z,1020.90
2022-08-30T00:34:32.626Z,1020.90
2022-08-30T00:34:42.045Z,1020.93
2022-08-30T00:34:51.514Z,1020.91
2022-08-30T00:35:00.944Z,1020.85
2022-08-30T00:35:19.790Z,1020.87
2022-08-30T00:35:29.263Z,1020.88
2022-08-30T00:35:38.688Z,1020.85
2022-08-30T00:35:48.140Z,1020.86
2022-08-30T00:35:57.552Z,1020.86
2022-08-30T00:36:06.970Z,1020.87
2022-08-30T00:36:16.393Z,1020.85
2022-08-30T00:36:25.812Z,1020.83
2022-08-30T00:36:35.243Z,1020.87
2022-08-30T00:36:44.675Z,1020.86
2022-08-30T00:36:54.110Z,1020.89
2022-08-30T00:37:03.526Z,1020.85
2022-08-30T00:37:12.976Z,1020.88
2022-08-30T00:37:22.396Z,1020.86
2022-08-30T00:37:31.846Z,1020.89
2022-08-30T00:37:41.309Z,1020.80
2022-08-30T00:37:50.755Z,1020.80
2022-08-30T00:38:09.543Z,1020.87
2022-08-30T00:38:18.961Z,1020.87
2022-08-30T00:38:28.451Z,1020.92
2022-08-30T00:38:37.903Z,1020.99
2022-08-30T00:38:47.366Z,1020.94
2022-08-30T00:38:56.790Z,1020.97
2022-08-30T00:39:06.198Z,1020.90
2022-08-30T00:39:15.631Z,1020.88
2022-08-30T00:39:25.056Z,1020.95
2022-08-30T00:39:34.809Z,1020.94
2022-08-30T00:39:44.220Z,1020.91
2022-08-30T00:39:53.624Z,1020.98
2022-08-30T00:40:03.116Z,1020.94
2022-08-30T00:40:12.522Z,1020.99
2022-08-30T00:40:24.917Z,1020.95
2022-08-30T00:40:31.363Z,1020.99
2022-08-30T00:40:40.798Z,1020.89
2022-08-30T00:40:59.647Z,1021.01
2022-08-30T00:41:09.047Z,1021.03
2022-08-30T00:41:18.469Z,1020.94
2022-08-30T00:41:27.922Z,1020.98
2022-08-30T00:41:37.412Z,1021.00
2022-08-30T00:41:46.818Z,1020.99
2022-08-30T00:41:56.264Z,1020.96
2022-08-30T00:42:05.678Z,1020.90
2022-08-30T00:42:15.105Z,1020.91
2022-08-30T00:42:24.516Z,1020.95
2022-08-30T00:42:33.937Z,1020.98
2022-08-30T00:42:43.362Z,1021.00
2022-08-30T00:42:56.747Z,1020.95
2022-08-30T00:43:05.758Z,1020.92
2022-08-30T00:43:14.078Z,1020.95
2022-08-30T00:43:21.070Z,1020.96
2022-08-30T00:43:39.924Z,1021.02
2022-08-30T00:43:49.339Z,1021.06
2022-08-30T00:43:58.754Z,1020.96
2022-08-30T00:44:08.153Z,1021.02
2022-08-30T00:44:17.571Z,1021.00
2022-08-30T00:44:26.989Z,1020.93
2022-08-30T00:44:37.635Z,1020.93
2022-08-30T00:44:47.057Z,1020.98
2022-08-30T00:44:56.508Z,1021.03
2022-08-30T00:45:05.945Z,1021.00
2022-08-30T00:45:15.352Z,1021.00
2022-08-30T00:45:24.773Z,1020.94
2022-08-30T00:45:34.191Z,1020.89
2022-08-30T00:45:43.614Z,1021.02
2022-08-30T00:45:53.059Z,1020.91
2022-08-30T00:46:02.504Z,1020.99
2022-08-30T00:46:11.840Z,1021.01
2022-08-30T00:46:21.248Z,1021.04
2022-08-30T00:46:30.628Z,1020.92
2022-08-30T00:46:49.439Z,1021.04
2022-08-30T00:46:58.853Z,1021.10
2022-08-30T00:47:08.311Z,1021.00
2022-08-30T00:47:17.723Z,1021.00
2022-08-30T00:47:27.150Z,1021.10
2022-08-30T00:47:36.566Z,1021.05
2022-08-30T00:47:45.966Z,1020.96
2022-08-30T00:47:55.376Z,1021.03
2022-08-30T00:48:04.814Z,1021.01
2022-08-30T00:48:14.230Z,1021.04
2022-08-30T00:48:23.638Z,1021.04
2022-08-30T00:48:33.090Z,1021.07
2022-08-30T00:48:42.494Z,1021.04
2022-08-30T00:48:51.928Z,1021.07
2022-08-30T00:49:01.361Z,1021.04
2022-08-30T00:49:10.782Z,1021.08
2022-08-30T00:49:29.727Z,1021.05
2022-08-30T00:49:39.192Z,1020.99
2022-08-30T00:49:48.612Z,1021.05
2022-08-30T00:49:58.118Z,1021.06
2022-08-30T00:50:07.533Z,1021.11
2022-08-30T00:50:16.924Z,1021.07
2022-08-30T00:50:26.345Z,1021.04
2022-08-30T00:50:35.757Z,1021.04
2022-08-30T00:50:45.184Z,1021.04
2022-08-30T00:50:54.570Z,1021.02
2022-08-30T00:51:03.992Z,1021.03
2022-08-30T00:51:13.418Z,1021.08
2022-08-30T00:51:22.854Z,1021.03
2022-08-30T00:51:32.259Z,1021.01
2022-08-30T00:51:41.673Z,1021.04
2022-08-30T00:51:51.150Z,1021.04
2022-08-30T00:52:00.564Z,1021.03
2022-08-30T00:52:19.455Z,1021.07
2022-08-30T00:52:28.860Z,1021.05
2022-08-30T00:52:38.261Z,1021.06
2022-08-30T00:52:47.665Z,1021.05
2022-08-30T00:52:57.070Z,1021.02
2022-08-30T00:53:06.482Z,1021.12
2022-08-30T00:53:16.213Z,1021.04
2022-08-30T00:53:25.366Z,1021.09
2022-08-30T00:53:34.789Z,1021.03
2022-08-30T00:53:44.193Z,1021.05
2022-08-30T00:53:53.615Z,1021.00
2022-08-30T00:54:03.030Z,1021.04
2022-08-30T00:54:12.422Z,1021.04
2022-08-30T00:54:21.834Z,1021.08
2022-08-30T00:54:31.275Z,1021.04
2022-08-30T00:55:13.200Z,1021.08
2022-08-30T00:55:22.610Z,1021.12
2022-08-30T00:55:32.019Z,1021.10
2022-08-30T00:55:42.050Z,1021.07
2022-08-30T00:55:50.989Z,1021.11
2022-08-30T00:56:00.396Z,1021.09
2022-08-30T00:56:09.802Z,1021.06
2022-08-30T00:56:19.238Z,1021.11
2022-08-30T00:56:28.654Z,1021.08
2022-08-30T00:56:38.073Z,1021.06
2022-08-30T00:56:47.476Z,1021.06
2022-08-30T00:56:56.919Z,1021.07
2022-08-30T00:57:06.334Z,1021.08
2022-08-30T00:57:15.751Z,1021.09
2022-08-30T00:57:25.152Z,1021.10
2022-08-30T00:57:34.543Z,1021.06
2022-08-30T00:57:43.946Z,1021.09
2022-08-30T00:57:53.404Z,1021.09
2022-08-30T00:58:02.808Z,1021.08
2022-08-30T00:58:12.218Z,1021.08
2022-08-30T00:58:21.632Z,1021.12
2022-08-30T00:58:31.026Z,1021.12
2022-08-30T00:58:40.437Z,1021.10
2022-08-30T00:58:49.886Z,1021.18
2022-08-30T00:58:59.290Z,1021.17
2022-08-30T00:59:08.700Z,1021.04
2022-08-30T00:59:18.123Z,1021.12
2022-08-30T00:59:27.603Z,1021.17
2022-08-30T00:59:37.012Z,1021.08
2022-08-30T00:59:46.771Z,1021.11
2022-08-30T00:59:56.173Z,1021.15
2022-08-30T01:00:05.610Z,1021.06
2022-08-30T01:00:15.034Z,1021.09
2022-08-30T01:00:24.439Z,1021.09
2022-08-30T01:00:33.838Z,1021.13
2022-08-30T01:00:43.273Z,1021.07
2022-08-30T01:00:52.692Z,1021.06
2022-08-30T01:01:02.210Z,1021.08
2022-08-30T01:01:11.618Z,1021.09
2022-08-30T01:01:21.045Z,1021.14
2022-08-30T01:01:39.844Z,1021.09
2022-08-30T01:01:49.315Z,1021.18
2022-08-30T01:01:58.649Z,1021.06
2022-08-30T01:02:08.091Z,1021.07
2022-08-30T01:02:17.471Z,1021.08
2022-08-30T01:02:26.927Z,1021.10
2022-08-30T01:02:36.278Z,1021.12
2022-08-30T01:02:45.701Z,1021.12
2022-08-30T01:02:55.166Z,1021.12
2022-08-30T01:03:04.584Z,1021.07
2022-08-30T01:03:13.988Z,1021.04
2022-08-30T01:03:23.320Z,1021.05
2022-08-30T01:03:32.736Z,1021.06
2022-08-30T01:03:42.144Z,1021.13
2022-08-30T01:03:51.579Z,1021.08
2022-08-30T01:04:01.056Z,1021.00
2022-08-30T01:04:19.877Z,1021.12
2022-08-30T01:04:29.276Z,1021.05
2022-08-30T01:04:38.694Z,1020.99
2022-08-30T01:04:48.157Z,1021.00
2022-08-30T01:04:57.580Z,1021.06
2022-08-30T01:05:06.982Z,1020.99
2022-08-30T01:05:16.397Z,1021.03
2022-08-30T01:05:25.832Z,1020.98
2022-08-30T01:05:35.237Z,1021.09
2022-08-30T01:05:44.628Z,1020.98
2022-08-30T01:05:54.077Z,1020.99
2022-08-30T01:06:03.473Z,1021.03
2022-08-30T01:06:12.893Z,1020.96
2022-08-30T01:06:22.282Z,1021.00
2022-08-30T01:06:32.644Z,1021.03
2022-08-30T01:06:41.106Z,1020.94
2022-08-30T01:06:59.924Z,1020.99
2022-08-30T01:07:09.368Z,1021.02
2022-08-30T01:07:18.847Z,1021.00
2022-08-30T01:07:28.321Z,1021.11
2022-08-30T01:07:37.740Z,1021.04
2022-08-30T01:07:47.155Z,1021.07
2022-08-30T01:07:56.556Z,1021.02
2022-08-30T01:08:06.006Z,1021.06
2022-08-30T01:08:15.418Z,1021.01
2022-08-30T01:08:24.837Z,1021.03
2022-08-30T01:08:34.308Z,1021.02
2022-08-30T01:08:43.739Z,1021.11
2022-08-30T01:08:53.159Z,1021.02
2022-08-30T01:09:02.626Z,1021.04
2022-08-30T01:09:12.045Z,1021.05
2022-08-30T01:09:21.478Z,1021.05
2022-08-30T01:09:30.900Z,1021.04
2022-08-30T01:09:52.033Z,1021.03
2022-08-30T01:10:01.456Z,1021.05
2022-08-30T01:10:10.870Z,1021.09
2022-08-30T01:10:20.302Z,1021.03
2022-08-30T01:10:29.711Z,1021.08
2022-08-30T01:10:39.139Z,1021.07
2022-08-30T01:10:48.564Z,1021.05
2022-08-30T01:10:57.976Z,1021.06
2022-08-30T01:11:07.382Z,1021.03
2022-08-30T01:11:16.782Z,1021.04
2022-08-30T01:11:26.193Z,1021.04
2022-08-30T01:11:35.594Z,1021.04
2022-08-30T01:11:45.009Z,1021.04
2022-08-30T01:11:54.406Z,1021.13
2022-08-30T01:12:03.882Z,1021.10
2022-08-30T01:12:13.302Z,1021.07
2022-08-30T01:12:22.774Z,1021.13
2022-08-30T01:12:32.183Z,1021.07
2022-08-30T01:12:41.616Z,1021.12
2022-08-30T01:12:51.029Z,1021.13
2022-08-30T01:13:09.828Z,1021.12
2022-08-30T01:13:19.256Z,1021.08
2022-08-30T01:13:28.705Z,1021.15
2022-08-30T01:13:38.127Z,1021.08
2022-08-30T01:13:47.548Z,1021.06
2022-08-30T01:13:56.940Z,1021.07
2022-08-30T01:14:06.359Z,1021.11
2022-08-30T01:14:15.767Z,1021.07
2022-08-30T01:14:25.982Z,1021.06
2022-08-30T01:14:34.636Z,1021.08
2022-08-30T01:14:44.070Z,1021.09
2022-08-30T01:14:53.506Z,1021.12
2022-08-30T01:15:02.914Z,1021.07
2022-08-30T01:15:12.325Z,1021.07
2022-08-30T01:15:21.760Z,1021.10
2022-08-30T01:15:31.229Z,1021.12
2022-08-30T01:15:40.650Z,1021.08
2022-08-30T01:15:59.472Z,1021.12
2022-08-30T01:16:08.948Z,1021.06
2022-08-30T01:16:18.337Z,1021.06
2022-08-30T01:16:27.746Z,1020.98
2022-08-30T01:16:37.150Z,1021.02
2022-08-30T01:16:46.558Z,1021.02
2022-08-30T01:16:55.967Z,1021.08
2022-08-30T01:17:05.444Z,1021.04
2022-08-30T01:17:14.878Z,1021.07
2022-08-30T01:17:24.292Z,1021.07
2022-08-30T01:17:33.721Z,1021.06
2022-08-30T01:17:43.128Z,1021.12
2022-08-30T01:17:52.597Z,1021.03
2022-08-30T01:18:02.054Z,1021.14
2022-08-30T01:18:11.522Z,1021.08
2022-08-30T01:18:22.373Z,1021.07
2022-08-30T01:18:39.864Z,1021.15
2022-08-30T01:18:49.200Z,1021.10
2022-08-30T01:18:58.615Z,1021.14
2022-08-30T01:19:08.018Z,1021.16
2022-08-30T01:19:17.410Z,1021.17
2022-08-30T01:19:26.835Z,1021.18
2022-08-30T01:19:36.256Z,1021.11
2022-08-30T01:19:45.676Z,1021.16
2022-08-30T01:19:55.124Z,1021.17
2022-08-30T01:20:04.562Z,1021.13
2022-08-30T01:20:13.979Z,1021.17
2022-08-30T01:20:23.483Z,1021.12
2022-08-30T01:20:32.882Z,1021.12
2022-08-30T01:20:42.328Z,1021.11
2022-08-30T01:20:51.832Z,1021.19
2022-08-30T01:21:01.258Z,1021.14
2022-08-30T01:21:10.668Z,1021.10
2022-08-30T01:21:29.470Z,1021.14
2022-08-30T01:21:38.901Z,1021.14
2022-08-30T01:21:48.336Z,1021.18
2022-08-30T01:21:57.799Z,1021.14
2022-08-30T01:22:07.220Z,1021.19
2022-08-30T01:22:16.659Z,1021.15
2022-08-30T01:22:26.094Z,1021.16
2022-08-30T01:22:35.491Z,1021.14
2022-08-30T01:22:45.016Z,1021.18
2022-08-30T01:22:54.347Z,1021.15
2022-08-30T01:23:03.822Z,1021.18
2022-08-30T01:23:13.328Z,1021.21
2022-08-30T01:23:22.668Z,1021.20
2022-08-30T01:23:32.085Z,1021.20
2022-08-30T01:23:41.504Z,1021.19
2022-08-30T01:23:50.932Z,1021.18
2022-08-30T01:24:10.108Z,1021.22
2022-08-30T01:24:19.529Z,1021.23
2022-08-30T01:24:28.986Z,1021.22
2022-08-30T01:24:38.449Z,1021.22
2022-08-30T01:24:47.918Z,1021.18
2022-08-30T01:24:57.728Z,1021.26
2022-08-30T01:25:08.224Z,1021.23
2022-08-30T01:25:16.576Z,1021.25
2022-08-30T01:25:26.001Z,1021.23
2022-08-30T01:25:35.419Z,1021.23
2022-08-30T01:25:44.824Z,1021.21
2022-08-30T01:25:54.295Z,1021.27
2022-08-30T01:26:03.710Z,1021.24
2022-08-30T01:26:13.146Z,1021.22
2022-08-30T01:26:22.589Z,1021.27
2022-08-30T01:26:32.074Z,1021.21
2022-08-30T01:26:41.524Z,1021.24
2022-08-30T01:26:50.944Z,1021.21
2022-08-30T01:27:09.765Z,1021.18
2022-08-30T01:27:19.224Z,1021.21
2022-08-30T01:27:28.631Z,1021.18
2022-08-30T01:27:38.048Z,1021.25
2022-08-30T01:27:47.481Z,1021.18
2022-08-30T01:27:56.880Z,1021.25
2022-08-30T01:28:06.313Z,1021.19
2022-08-30T01:28:15.763Z,1021.21
2022-08-30T01:28:25.244Z,1021.23
2022-08-30T01:28:34.680Z,1021.25
2022-08-30T01:28:44.102Z,1021.23
2022-08-30T01:28:53.595Z,1021.22
2022-08-30T01:29:03.006Z,1021.20
2022-08-30T01:29:12.468Z,1021.24
2022-08-30T01:29:21.893Z,1021.17
2022-08-30T01:29:31.402Z,1021.15
2022-08-30T01:29:40.834Z,1021.19
2022-08-30T01:29:59.700Z,1021.22
2022-08-30T01:30:09.149Z,1021.15
2022-08-30T01:30:18.547Z,1021.26
2022-08-30T01:30:28.011Z,1021.25
2022-08-30T01:30:37.454Z,1021.23
2022-08-30T01:30:46.882Z,1021.17
2022-08-30T01:30:56.343Z,1021.23
2022-08-30T01:31:05.776Z,1021.22
2022-08-30T01:31:15.169Z,1021.23
2022-08-30T01:31:24.534Z,1021.21
2022-08-30T01:31:33.913Z,1021.23
2022-08-30T01:31:43.333Z,1021.26
2022-08-30T01:31:52.812Z,1021.22
2022-08-30T01:32:02.228Z,1021.20
2022-08-30T01:32:11.668Z,1021.23
2022-08-30T01:32:21.409Z,1021.22
2022-08-30T01:32:39.911Z,1021.28
2022-08-30T01:32:49.374Z,1021.22
2022-08-30T01:32:58.800Z,1021.22
2022-08-30T01:33:08.226Z,1021.21
2022-08-30T01:33:17.856Z,1021.24
2022-08-30T01:33:27.057Z,1021.24
2022-08-30T01:33:36.484Z,1021.21
2022-08-30T01:33:45.907Z,1021.31
2022-08-30T01:33:55.362Z,1021.26
2022-08-30T01:34:04.798Z,1021.28
2022-08-30T01:34:14.227Z,1021.22
2022-08-30T01:34:23.645Z,1021.24
2022-08-30T01:34:33.105Z,1021.25
2022-08-30T01:34:42.512Z,1021.26
2022-08-30T01:34:51.928Z,1021.28
2022-08-30T01:35:01.348Z,1021.24
2022-08-30T01:35:11.029Z,1021.17
2022-08-30T01:35:29.893Z,1021.27
2022-08-30T01:35:39.316Z,1021.29
2022-08-30T01:35:48.792Z,1021.24
2022-08-30T01:35:58.222Z,1021.25
2022-08-30T01:36:07.666Z,1021.23
2022-08-30T01:36:17.102Z,1021.22
2022-08-30T01:36:26.523Z,1021.29
2022-08-30T01:36:35.933Z,1021.34
2022-08-30T01:36:45.350Z,1021.23
2022-08-30T01:36:54.775Z,1021.25
2022-08-30T01:37:04.192Z,1021.27
2022-08-30T01:37:13.613Z,1021.25
2022-08-30T01:37:23.043Z,1021.26
2022-08-30T01:37:32.453Z,1021.27
2022-08-30T01:37:41.878Z,1021.27
2022-08-30T01:37:51.335Z,1021.23
2022-08-30T01:38:00.755Z,1021.32
2022-08-30T01:38:19.593Z,1021.28
2022-08-30T01:38:29.015Z,1021.32
2022-08-30T01:38:38.500Z,1021.27
2022-08-30T01:38:47.966Z,1021.29
2022-08-30T01:38:57.429Z,1021.32
2022-08-30T01:39:06.881Z,1021.26
2022-08-30T01:39:16.300Z,1021.27
2022-08-30T01:39:25.740Z,1021.32
2022-08-30T01:39:35.140Z,1021.30
2022-08-30T01:39:44.563Z,1021.33
2022-08-30T01:39:53.987Z,1021.27
2022-08-30T01:40:03.546Z,1021.28
2022-08-30T01:40:12.936Z,1021.32
2022-08-30T01:40:22.363Z,1021.27
2022-08-30T01:40:31.815Z,1021.31
2022-08-30T01:40:41.242Z,1021.32
2022-08-30T01:40:50.773Z,1021.30
2022-08-30T01:41:09.610Z,1021.32
2022-08-30T01:41:19.033Z,1021.27
2022-08-30T01:41:28.467Z,1021.30
2022-08-30T01:41:37.880Z,1021.26
2022-08-30T01:41:47.305Z,1021.41
2022-08-30T01:41:56.704Z,1021.25
2022-08-30T01:42:06.125Z,1021.29
2022-08-30T01:42:15.558Z,1021.29
2022-08-30T01:42:24.989Z,1021.35
2022-08-30T01:42:34.412Z,1021.25
2022-08-30T01:42:43.833Z,1021.30
2022-08-30T01:42:53.294Z,1021.29
2022-08-30T01:43:02.728Z,1021.29
2022-08-30T01:43:12.127Z,1021.34
2022-08-30T01:43:21.544Z,1021.24
2022-08-30T01:43:30.979Z,1021.32
2022-08-30T01:43:49.932Z,1021.24
2022-08-30T01:43:59.341Z,1021.30
2022-08-30T01:44:08.757Z,1021.38
2022-08-30T01:44:18.210Z,1021.27
2022-08-30T01:44:27.633Z,1021.27
2022-08-30T01:44:37.062Z,1021.29
2022-08-30T01:44:46.473Z,1021.28
2022-08-30T01:44:55.872Z,1021.29
2022-08-30T01:45:05.344Z,1021.30
2022-08-30T01:45:14.748Z,1021.34
2022-08-30T01:45:24.202Z,1021.31
2022-08-30T01:45:33.610Z,1021.28
2022-08-30T01:45:43.083Z,1021.32
2022-08-30T01:45:52.477Z,1021.32
2022-08-30T01:46:01.871Z,1021.29
2022-08-30T01:46:11.294Z,1021.28
2022-08-30T01:46:20.789Z,1021.29
2022-08-30T01:46:39.500Z,1021.28
2022-08-30T01:46:49.022Z,1021.28
2022-08-30T01:46:58.426Z,1021.24
2022-08-30T01:47:07.808Z,1021.26
2022-08-30T01:47:17.286Z,1021.27
2022-08-30T01:47:26.707Z,1021.32
2022-08-30T01:47:36.130Z,1021.30
2022-08-30T01:47:45.540Z,1021.30
2022-08-30T01:47:54.959Z,1021.30
2022-08-30T01:48:06.624Z,1021.28
2022-08-30T01:48:13.801Z,1021.23
2022-08-30T01:48:30.877Z,1021.32
2022-08-30T01:48:32.648Z,1021.32
2022-08-30T01:48:42.065Z,1021.29
2022-08-30T01:48:53.943Z,1021.24
2022-08-30T01:49:00.999Z,1021.30
2022-08-30T01:49:26.956Z,1021.26
2022-08-30T01:49:29.251Z,1021.28
2022-08-30T01:49:38.662Z,1021.28
2022-08-30T01:49:48.123Z,1021.26
2022-08-30T01:49:57.537Z,1021.30
2022-08-30T01:50:06.981Z,1021.30
2022-08-30T01:50:16.388Z,1021.29
2022-08-30T01:50:25.790Z,1021.28
2022-08-30T01:50:35.216Z,1021.27
2022-08-30T01:50:44.637Z,1021.31
2022-08-30T01:50:54.065Z,1021.24
2022-08-30T01:51:03.481Z,1021.32
2022-08-30T01:51:12.874Z,1021.28
2022-08-30T01:51:22.294Z,1021.27
2022-08-30T01:51:31.697Z,1021.29
2022-08-30T01:51:41.118Z,1021.27
2022-08-30T01:51:50.577Z,1021.27
2022-08-30T01:52:09.398Z,1021.24
2022-08-30T01:52:18.805Z,1021.18
2022-08-30T01:52:28.226Z,1021.23
2022-08-30T01:52:37.724Z,1021.13
2022-08-30T01:52:47.219Z,1021.23
2022-08-30T01:52:56.628Z,1021.22
2022-08-30T01:53:06.054Z,1021.22
2022-08-30T01:53:15.584Z,1021.21
2022-08-30T01:53:24.891Z,1021.24
2022-08-30T01:53:34.309Z,1021.16
2022-08-30T01:53:43.731Z,1021.18
2022-08-30T01:53:53.155Z,1021.22
2022-08-30T01:54:02.810Z,1021.22
2022-08-30T01:54:12.215Z,1021.16
2022-08-30T01:54:21.617Z,1021.22
2022-08-30T01:54:33.372Z,1021.23
2022-08-30T01:54:49.883Z,1021.18
2022-08-30T01:54:59.306Z,1021.21
2022-08-30T01:55:08.778Z,1021.22
2022-08-30T01:55:18.182Z,1021.23
2022-08-30T01:55:27.673Z,1021.19
2022-08-30T01:55:37.059Z,1021.20
2022-08-30T01:55:46.464Z,1021.17
2022-08-30T01:55:55.938Z,1021.20
2022-08-30T01:56:05.359Z,1021.22
2022-08-30T01:56:14.778Z,1021.21
2022-08-30T01:56:24.194Z,1021.20
2022-08-30T01:56:33.627Z,1021.22
2022-08-30T01:56:43.041Z,1021.18
2022-08-30T01:56:52.467Z,1021.24
2022-08-30T01:57:01.904Z,1021.22
2022-08-30T01:57:11.338Z,1021.24
2022-08-30T01:57:20.729Z,1021.15
2022-08-30T01:57:42.496Z,1021.23
2022-08-30T01:57:51.939Z,1021.16
2022-08-30T01:58:01.598Z,1021.19
2022-08-30T01:58:11.010Z,1021.21
2022-08-30T01:58:20.457Z,1021.22
2022-08-30T01:58:29.893Z,1021.15
2022-08-30T01:58:39.351Z,1021.23
2022-08-30T01:58:48.830Z,1021.24
2022-08-30T01:59:02.675Z,1021.25
2022-08-30T01:59:07.628Z,1021.17
2022-08-30T01:59:17.053Z,1021.20
2022-08-30T01:59:26.469Z,1021.22
2022-08-30T01:59:35.864Z,1021.20
2022-08-30T01:59:45.277Z,1021.20
2022-08-30T01:59:54.686Z,1021.26
2022-08-30T02:00:04.160Z,1021.21
2022-08-30T02:00:13.602Z,1021.27
2022-08-30T02:00:23.025Z,1021.27
2022-08-30T02:00:32.418Z,1021.22
2022-08-30T02:00:41.841Z,1021.28
2022-08-30T02:00:51.309Z,1021.25
2022-08-30T02:01:00.793Z,1021.25